Rogersville, TN (37857)

1:02 PM EST on December 09, 2016 (GMT -0500)
Whitesburg | | Change Station

Elev 1188 ft 36.29 °N, 83.13 °W | Updated 2 minutes ago

Partly Cloudy
Partly Cloudy
29.4 °F
Feels Like 23 °F
N
6.0
Wind Variable Wind from West
Gusts 12.0 mph

Today
High -- | Low -- °F
--% Chance of Precip.
Yesterday
High -- | Low -- °F
Precip. -- in
Pressure 30.50 in
Visibility 10.0 miles
Clouds Clear
Windchill 23 °F
Dew Point 17 °F
Humidity 59%
Rainfall 0.00 in
Snow Depth Not available.
7:32 AM 5:16 PM
Waxing Gibbous, 76% visible
METAR K0VG 091730Z AUTO 00000KT 10SM CLR M02/M10 A3050 RMK AO2
Pressure 30.50 in
Visibility 10.0 miles
Clouds Clear
Windchill 23 °F
Dew Point 17 °F
Humidity 59%
Rainfall 0.00 in
Snow Depth Not available.
7:32 AM 5:16 PM
Waxing Gibbous, 76% visible
METAR K0VG 091730Z AUTO 00000KT 10SM CLR M02/M10 A3050 RMK AO2

10-Day Weather Forecast

Almanac

Astronomy

Dec. 09, 2016 Rise Set
Actual Time
Civil Twilight
Nautical Twilight
Astronomical Twilight
Moon
Length of Visible Light
Length of Day
Tomorrow will be .
, % of the Moon is Illuminated

Today's Extremes

State Highs State Lows

Community

WunderPhotos

Upload Photos

1,956,499 photos uploaded!

WunderBlog® & News

Nearby

Air Quality

  Air Quality AQ Index Pollutant
Not available.

Snow Depth

Station Depth Elevation

Earthquake Activity

City Distance Mag. Time & Date
Minimum magnitude displayed is 2.5.

Coastal Water Temperatures

Place Temperature

Stations

Nearby Weather Stations

Station Location Temp. Windchill Dew Point Humidity Wind Precip. Elev Updated Type
                   

Watches & Warnings

There are currently no watches in effect.